Time;durP1;ratioP1;P1;durP2;ratioP2;P2;SDS_P1;SDS_P2;PMS_P1;PMS_P2;Temp;Humidity;BMP_temperature;BMP_pressure;BME280_temperature;BME280_humidity;BME280_pressure;Samples;Min_cycle;Max_cycle;Signal;HPM_P1;HPM_P2
2023/07/24 00:01:46;;;;;;;4.65;2.63;;;;;;;;;;5015950;28;20256;-76
2023/07/24 00:04:11;;;;;;;4.43;2.23;;;;;;;;;;5015829;28;20080;-76
2023/07/24 00:06:37;;;;;;;4.67;2.20;;;;;;;;;;5014256;28;20731;-77
2023/07/24 00:09:02;;;;;;;3.28;2.17;;;;;;;;;;5014388;28;20282;-77
2023/07/24 00:11:27;;;;;;;4.70;2.25;;;;;;;;;;5013907;28;20389;-76
2023/07/24 00:13:52;;;;;;;4.63;2.30;;;;;;;;;;5015906;28;20040;-76
2023/07/24 00:16:18;;;;;;;4.60;2.30;;;;;;;;;;5015553;28;20366;-76
2023/07/24 00:18:43;;;;;;;2.95;2.22;;;;;;;;;;5014140;28;20255;-77
2023/07/24 00:21:10;;;;;;;3.43;2.00;;;;;;;;;;5015443;28;20117;-76
2023/07/24 00:23:35;;;;;;;4.15;2.30;;;;;;;;;;5014237;28;20267;-76
2023/07/24 00:26:01;;;;;;;3.50;2.20;;;;;;;;;;5015365;28;20014;-76
2023/07/24 00:28:26;;;;;;;4.30;2.20;;;;;;;;;;5015305;28;20263;-76
2023/07/24 00:30:51;;;;;;;2.92;2.10;;;;;;;;;;5015231;28;20260;-76
2023/07/24 00:33:16;;;;;;;4.10;2.20;;;;;;;;;;5015242;28;20029;-76
2023/07/24 00:35:42;;;;;;;5.13;2.40;;;;;;;;;;5015109;28;20358;-76
2023/07/24 00:38:07;;;;;;;3.63;2.30;;;;;;;;;;5015410;28;20638;-76
2023/07/24 00:40:32;;;;;;;2.97;2.25;;;;;;;;;;5015067;28;20061;-76
2023/07/24 00:42:57;;;;;;;5.13;2.40;;;;;;;;;;5015097;28;20021;-76
2023/07/24 00:45:23;;;;;;;4.07;2.50;;;;;;;;;;5015034;28;20022;-76
2023/07/24 00:47:49;;;;;;;4.57;2.30;;;;;;;;;;5015026;28;20263;-76
2023/07/24 00:50:14;;;;;;;4.60;2.42;;;;;;;;;;5013551;28;20044;-76
2023/07/24 00:52:41;;;;;;;6.05;2.50;;;;;;;;;;5015237;28;20025;-77
2023/07/24 00:55:07;;;;;;;3.85;2.30;;;;;;;;;;5014817;28;20022;-76
2023/07/24 00:57:33;;;;;;;3.83;2.40;;;;;;;;;;5015099;28;20033;-76
2023/07/24 00:59:59;;;;;;;3.65;2.28;;;;;;;;;;5013435;28;20031;-76
2023/07/24 01:02:25;;;;;;;3.80;2.25;;;;;;;;;;5014776;28;20026;-77
2023/07/24 01:04:50;;;;;;;5.35;2.25;;;;;;;;;;5013476;28;20448;-76
2023/07/24 01:07:16;;;;;;;4.22;2.60;;;;;;;;;;5013415;28;20044;-76
2023/07/24 01:09:42;;;;;;;4.13;2.45;;;;;;;;;;5014508;28;20022;-76
2023/07/24 01:12:32;;;;;;;3.40;2.20;;;;;;;;;;5013337;28;20121;-76
2023/07/24 01:15:11;;;;;;;2.72;1.98;;;;;;;;;;5014549;28;20076;-77
2023/07/24 01:17:41;;;;;;;7.15;2.17;;;;;;;;;;5014445;28;20017;-76
2023/07/24 01:20:11;;;;;;;6.97;2.40;;;;;;;;;;5014453;28;20082;-76
2023/07/24 01:22:54;;;;;;;3.75;2.30;;;;;;;;;;5012458;28;20045;-77
2023/07/24 01:25:35;;;;;;;2.88;2.20;;;;;;;;;;5014394;28;20492;-76
2023/07/24 01:28:00;;;;;;;4.80;2.10;;;;;;;;;;5014785;28;20117;-76
2023/07/24 01:30:26;;;;;;;2.80;2.17;;;;;;;;;;5014509;28;20117;-76
2023/07/24 01:32:51;;;;;;;3.47;2.37;;;;;;;;;;5014518;28;20030;-76
2023/07/24 01:35:16;;;;;;;6.75;2.15;;;;;;;;;;5012813;28;20278;-76
2023/07/24 01:37:43;;;;;;;2.97;2.10;;;;;;;;;;5014557;28;20026;-76
2023/07/24 01:40:10;;;;;;;3.67;2.40;;;;;;;;;;5014331;28;20048;-76
2023/07/24 01:42:35;;;;;;;7.47;2.13;;;;;;;;;;5012695;28;20508;-76
2023/07/24 01:45:02;;;;;;;2.90;2.00;;;;;;;;;;5014084;28;20093;-76
2023/07/24 01:47:28;;;;;;;3.10;2.08;;;;;;;;;;5013983;28;20029;-77
2023/07/24 01:49:53;;;;;;;3.58;2.40;;;;;;;;;;5012574;28;20087;-76
2023/07/24 01:52:18;;;;;;;4.20;2.50;;;;;;;;;;5012851;28;20504;-76
2023/07/24 01:54:43;;;;;;;5.45;2.90;;;;;;;;;;5012584;28;20032;-76
2023/07/24 01:57:09;;;;;;;4.70;2.10;;;;;;;;;;5013845;28;20041;-76
2023/07/24 01:59:34;;;;;;;6.53;2.20;;;;;;;;;;5012551;28;20033;-76
2023/07/24 02:01:59;;;;;;;4.20;2.30;;;;;;;;;;5012724;28;20033;-76
2023/07/24 02:04:24;;;;;;;6.83;2.67;;;;;;;;;;5013845;28;20255;-76
2023/07/24 02:06:49;;;;;;;4.77;2.40;;;;;;;;;;5013967;28;20333;-76
2023/07/24 02:09:17;;;;;;;2.88;2.20;;;;;;;;;;5012299;28;20267;-76
2023/07/24 02:11:42;;;;;;;3.30;2.38;;;;;;;;;;5013790;28;20030;-76
2023/07/24 02:14:08;;;;;;;2.95;2.20;;;;;;;;;;5012236;28;20036;-76
2023/07/24 02:16:33;;;;;;;3.22;2.33;;;;;;;;;;5013450;28;20523;-76
2023/07/24 02:18:58;;;;;;;3.27;2.50;;;;;;;;;;5013863;28;20076;-76
2023/07/24 02:21:23;;;;;;;3.80;2.33;;;;;;;;;;5012155;28;20317;-76
2023/07/24 02:23:48;;;;;;;3.58;2.30;;;;;;;;;;5013380;28;20274;-76
2023/07/24 02:26:14;;;;;;;2.90;2.25;;;;;;;;;;5013323;28;20382;-76
2023/07/24 02:28:39;;;;;;;5.00;2.33;;;;;;;;;;5013246;28;20116;-76
2023/07/24 02:31:04;;;;;;;4.23;2.40;;;;;;;;;;5013459;28;20474;-76
2023/07/24 02:33:29;;;;;;;5.03;2.35;;;;;;;;;;5013828;28;20402;-76
2023/07/24 02:35:55;;;;;;;4.20;2.30;;;;;;;;;;5013391;28;20033;-76
2023/07/24 02:38:21;;;;;;;4.57;2.10;;;;;;;;;;5013738;28;20270;-76
2023/07/24 02:40:46;;;;;;;3.00;2.20;;;;;;;;;;5013285;28;20105;-76
2023/07/24 02:43:11;;;;;;;4.78;2.45;;;;;;;;;;5011941;28;20022;-76
2023/07/24 02:45:37;;;;;;;4.20;2.37;;;;;;;;;;5013262;28;20030;-76
2023/07/24 02:48:03;;;;;;;3.30;2.42;;;;;;;;;;5013085;28;20816;-76
2023/07/24 02:50:28;;;;;;;4.10;2.20;;;;;;;;;;5012964;28;20038;-76
2023/07/24 02:52:53;;;;;;;4.68;2.65;;;;;;;;;;5012666;28;20389;-76
2023/07/24 02:55:19;;;;;;;3.65;2.28;;;;;;;;;;5010466;28;20029;-76
2023/07/24 02:57:44;;;;;;;3.60;2.40;;;;;;;;;;5012962;28;20050;-76
2023/07/24 03:00:10;;;;;;;4.05;2.20;;;;;;;;;;5011992;28;20753;-75
2023/07/24 03:02:35;;;;;;;3.58;2.42;;;;;;;;;;5011942;28;20106;-77
2023/07/24 03:05:00;;;;;;;3.83;2.30;;;;;;;;;;5012978;28;20028;-75
2023/07/24 03:07:26;;;;;;;3.35;2.40;;;;;;;;;;5011973;28;20255;-75
2023/07/24 03:09:51;;;;;;;2.90;2.20;;;;;;;;;;5012838;28;20026;-76
2023/07/24 03:12:16;;;;;;;3.75;2.40;;;;;;;;;;5012938;28;20730;-76
2023/07/24 03:14:41;;;;;;;3.63;2.42;;;;;;;;;;5012891;28;20022;-76
2023/07/24 03:17:07;;;;;;;4.47;2.45;;;;;;;;;;5012844;28;20474;-76
2023/07/24 03:19:32;;;;;;;4.47;2.27;;;;;;;;;;5012824;28;20061;-76
2023/07/24 03:21:57;;;;;;;6.37;2.40;;;;;;;;;;5012799;28;20259;-76
2023/07/24 03:24:22;;;;;;;4.03;2.20;;;;;;;;;;5012790;28;20646;-76
2023/07/24 03:26:48;;;;;;;2.92;2.30;;;;;;;;;;5012851;28;20260;-76
2023/07/24 03:29:13;;;;;;;7.37;2.50;;;;;;;;;;5012687;28;20033;-76
2023/07/24 03:31:38;;;;;;;3.72;2.22;;;;;;;;;;5012707;28;20265;-76
2023/07/24 03:34:04;;;;;;;3.53;2.60;;;;;;;;;;5012760;28;20026;-76
2023/07/24 03:36:29;;;;;;;4.05;2.50;;;;;;;;;;5012615;28;20044;-76
2023/07/24 03:38:54;;;;;;;3.33;2.13;;;;;;;;;;5012767;28;20030;-76
2023/07/24 03:41:19;;;;;;;3.83;2.17;;;;;;;;;;5013026;28;20109;-76
2023/07/24 03:43:45;;;;;;;2.95;2.22;;;;;;;;;;5012944;28;20259;-76
2023/07/24 03:46:10;;;;;;;4.50;2.30;;;;;;;;;;5012505;28;20029;-76
2023/07/24 03:48:36;;;;;;;3.05;2.17;;;;;;;;;;5015914;28;20267;-76
2023/07/24 03:51:02;;;;;;;4.95;2.00;;;;;;;;;;5016099;28;20022;-76
2023/07/24 03:53:27;;;;;;;4.50;2.45;;;;;;;;;;5015978;28;20028;-76
2023/07/24 03:55:52;;;;;;;5.53;2.47;;;;;;;;;;5015976;28;20032;-76
2023/07/24 03:58:18;;;;;;;3.42;2.20;;;;;;;;;;5015891;28;20022;-76
2023/07/24 04:00:43;;;;;;;4.45;2.22;;;;;;;;;;5015864;28;20025;-76
2023/07/24 04:03:08;;;;;;;6.38;2.42;;;;;;;;;;5015868;28;20057;-77
2023/07/24 04:05:35;;;;;;;3.92;2.30;;;;;;;;;;5014539;28;20018;-76
2023/07/24 04:08:00;;;;;;;3.38;2.42;;;;;;;;;;5015637;28;20022;-76
2023/07/24 04:10:26;;;;;;;3.63;2.25;;;;;;;;;;5015559;28;20103;-76
2023/07/24 04:12:51;;;;;;;3.60;2.10;;;;;;;;;;5015713;28;20037;-76
2023/07/24 04:15:17;;;;;;;3.65;2.35;;;;;;;;;;5015574;28;20022;-76
2023/07/24 04:17:42;;;;;;;5.18;2.65;;;;;;;;;;5015435;28;20026;-76
2023/07/24 04:20:08;;;;;;;4.43;2.30;;;;;;;;;;5015764;28;20029;-76
2023/07/24 04:22:33;;;;;;;3.58;2.47;;;;;;;;;;5015489;28;20064;-76
2023/07/24 04:24:59;;;;;;;3.33;2.10;;;;;;;;;;5015481;28;20117;-75
2023/07/24 04:27:24;;;;;;;3.55;2.33;;;;;;;;;;5015369;28;20286;-76
2023/07/24 04:29:49;;;;;;;6.30;2.30;;;;;;;;;;5014051;28;20022;-76
2023/07/24 04:32:14;;;;;;;3.90;2.30;;;;;;;;;;5015300;28;20287;-76
2023/07/24 04:34:40;;;;;;;6.18;2.20;;;;;;;;;;5014035;28;20445;-76
2023/07/24 04:37:05;;;;;;;6.40;2.43;;;;;;;;;;5015208;28;20037;-76
2023/07/24 04:39:30;;;;;;;3.47;2.58;;;;;;;;;;5015098;28;20358;-76
2023/07/24 04:41:55;;;;;;;3.85;2.70;;;;;;;;;;5015126;28;20105;-77
2023/07/24 04:44:21;;;;;;;6.30;2.45;;;;;;;;;;5013832;28;20076;-76
2023/07/24 04:46:46;;;;;;;5.88;2.50;;;;;;;;;;5015007;28;20489;-76
2023/07/24 04:49:11;;;;;;;6.60;2.40;;;;;;;;;;5014972;28;20052;-76
2023/07/24 04:51:36;;;;;;;4.30;2.37;;;;;;;;;;5013772;28;20334;-76
2023/07/24 04:54:02;;;;;;;4.90;2.53;;;;;;;;;;5015098;28;20251;-76
2023/07/24 04:56:27;;;;;;;4.00;2.40;;;;;;;;;;5014773;28;20029;-76
2023/07/24 04:58:52;;;;;;;4.55;2.55;;;;;;;;;;5012689;28;20025;-76
2023/07/24 05:01:18;;;;;;;4.97;2.70;;;;;;;;;;5013470;28;20071;-76
2023/07/24 05:03:43;;;;;;;7.97;2.40;;;;;;;;;;5014744;28;20663;-77
2023/07/24 05:06:08;;;;;;;6.23;2.80;;;;;;;;;;5014667;28;20260;-76
2023/07/24 05:08:33;;;;;;;4.03;2.60;;;;;;;;;;5014520;28;20263;-77
2023/07/24 05:10:59;;;;;;;4.00;2.20;;;;;;;;;;5014785;28;20295;-76
2023/07/24 05:13:25;;;;;;;5.25;2.90;;;;;;;;;;5014776;28;20263;-76
2023/07/24 05:15:51;;;;;;;4.18;2.55;;;;;;;;;;5014315;28;20033;-76
2023/07/24 05:18:16;;;;;;;4.95;2.58;;;;;;;;;;5014821;28;20034;-77
2023/07/24 05:20:46;;;;;;;5.68;2.50;;;;;;;;;;5014353;28;20091;-76
2023/07/24 05:23:11;;;;;;;5.07;2.50;;;;;;;;;;5014687;28;20028;-77
2023/07/24 05:25:37;;;;;;;3.63;2.50;;;;;;;;;;5014411;28;20014;-77
2023/07/24 05:28:02;;;;;;;4.45;2.47;;;;;;;;;;5012897;28;20041;-77
2023/07/24 05:30:28;;;;;;;3.60;2.45;;;;;;;;;;5014139;28;20084;-76
2023/07/24 05:32:53;;;;;;;3.20;2.25;;;;;;;;;;5014505;28;20029;-76
2023/07/24 05:35:18;;;;;;;6.25;2.40;;;;;;;;;;5014315;28;20034;-75
2023/07/24 05:37:44;;;;;;;4.53;2.67;;;;;;;;;;5014035;28;20017;-76
2023/07/24 05:40:09;;;;;;;3.57;2.30;;;;;;;;;;5013064;28;20320;-76
2023/07/24 05:42:41;;;;;;;4.43;2.60;;;;;;;;;;5014319;28;20266;-76
2023/07/24 05:45:07;;;;;;;5.07;2.47;;;;;;;;;;5014052;28;20448;-76
2023/07/24 05:47:32;;;;;;;7.57;2.70;;;;;;;;;;5014200;28;20057;-76
2023/07/24 05:49:58;;;;;;;7.22;2.88;;;;;;;;;;5012430;28;20495;-76
2023/07/24 05:52:23;;;;;;;4.87;2.50;;;;;;;;;;5013828;28;20068;-76
2023/07/24 05:54:48;;;;;;;4.70;2.50;;;;;;;;;;5013766;28;20263;-76
2023/07/24 05:57:13;;;;;;;5.10;2.83;;;;;;;;;;5013676;28;20287;-76
2023/07/24 05:59:39;;;;;;;8.07;2.90;;;;;;;;;;5013656;28;20763;-76
2023/07/24 06:02:05;;;;;;;6.97;2.60;;;;;;;;;;5013711;28;20267;-76
2023/07/24 06:04:30;;;;;;;4.88;2.70;;;;;;;;;;5013889;28;20260;-76
2023/07/24 06:06:55;;;;;;;4.95;2.47;;;;;;;;;;5012379;28;20025;-76
2023/07/24 06:09:21;;;;;;;4.07;2.43;;;;;;;;;;5013133;28;20022;-77
2023/07/24 06:11:46;;;;;;;4.68;2.90;;;;;;;;;;5013590;28;20404;-76
2023/07/24 06:14:11;;;;;;;4.13;2.90;;;;;;;;;;5012202;28;20025;-76
2023/07/24 06:16:36;;;;;;;6.13;2.80;;;;;;;;;;5013521;28;20291;-76
2023/07/24 06:19:02;;;;;;;8.63;3.00;;;;;;;;;;5013496;28;20032;-76
2023/07/24 06:21:27;;;;;;;6.10;2.88;;;;;;;;;;5013379;28;20306;-76
2023/07/24 06:23:52;;;;;;;3.63;2.40;;;;;;;;;;5013319;28;20033;-76
2023/07/24 06:26:17;;;;;;;4.73;2.70;;;;;;;;;;5013547;28;20342;-76
2023/07/24 06:28:43;;;;;;;5.20;2.57;;;;;;;;;;5013190;28;20260;-76
2023/07/24 06:31:08;;;;;;;5.05;2.70;;;;;;;;;;5012050;28;20758;-76
2023/07/24 06:33:33;;;;;;;5.03;2.57;;;;;;;;;;5013522;28;20455;-77
2023/07/24 06:35:58;;;;;;;4.37;2.47;;;;;;;;;;5013081;28;20275;-77
2023/07/24 06:38:24;;;;;;;5.55;2.95;;;;;;;;;;5012142;28;20313;-77
2023/07/24 06:40:49;;;;;;;6.63;2.40;;;;;;;;;;5013262;28;20029;-77
2023/07/24 06:43:14;;;;;;;4.70;2.88;;;;;;;;;;5013135;28;20263;-77
2023/07/24 06:45:39;;;;;;;6.77;2.80;;;;;;;;;;5011891;28;20017;-77
2023/07/24 06:48:05;;;;;;;5.57;2.78;;;;;;;;;;5011797;28;20247;-77
2023/07/24 06:50:30;;;;;;;4.97;2.60;;;;;;;;;;5011774;28;20026;-77
2023/07/24 06:52:55;;;;;;;5.23;2.77;;;;;;;;;;5013136;28;20022;-77
2023/07/24 06:55:20;;;;;;;7.37;2.90;;;;;;;;;;5013185;28;20801;-77
2023/07/24 06:57:46;;;;;;;7.82;2.90;;;;;;;;;;5012925;28;20263;-77
2023/07/24 07:00:13;;;;;;;9.95;3.00;;;;;;;;;;5013210;28;20412;-76
2023/07/24 07:02:38;;;;;;;5.63;2.95;;;;;;;;;;5012934;28;20022;-77
2023/07/24 07:05:04;;;;;;;5.28;2.80;;;;;;;;;;5012964;28;20026;-76
2023/07/24 07:07:29;;;;;;;6.82;2.60;;;;;;;;;;5013069;28;20058;-77
2023/07/24 07:09:55;;;;;;;5.93;2.90;;;;;;;;;;5012921;28;20478;-76
2023/07/24 07:12:20;;;;;;;3.93;2.50;;;;;;;;;;5012916;28;20366;-76
2023/07/24 07:14:45;;;;;;;4.63;2.85;;;;;;;;;;5011666;28;20255;-77
2023/07/24 07:17:10;;;;;;;5.68;3.00;;;;;;;;;;5012727;28;20556;-77
2023/07/24 07:19:36;;;;;;;5.03;2.70;;;;;;;;;;5011590;28;20071;-77
2023/07/24 07:22:01;;;;;;;6.47;2.38;;;;;;;;;;5015045;28;20734;-77
2023/07/24 07:24:26;;;;;;;4.22;2.92;;;;;;;;;;5016542;28;20036;-78
2023/07/24 07:26:52;;;;;;;4.93;2.60;;;;;;;;;;5015396;28;20401;-77
2023/07/24 07:29:17;;;;;;;4.22;2.63;;;;;;;;;;5016500;28;20022;-77
2023/07/24 07:31:42;;;;;;;6.80;2.90;;;;;;;;;;5016603;28;20108;-77
2023/07/24 07:34:07;;;;;;;3.88;2.42;;;;;;;;;;5016391;28;20259;-77
2023/07/24 07:36:33;;;;;;;4.60;2.63;;;;;;;;;;5016302;28;20026;-78
2023/07/24 07:38:58;;;;;;;6.07;2.63;;;;;;;;;;5016193;28;20030;-77
2023/07/24 07:41:23;;;;;;;6.50;2.75;;;;;;;;;;5016618;28;20756;-78
2023/07/24 07:43:48;;;;;;;5.07;2.90;;;;;;;;;;5016556;28;20038;-76
2023/07/24 07:46:13;;;;;;;7.57;3.27;;;;;;;;;;5016310;28;20251;-77
2023/07/24 07:48:39;;;;;;;4.63;2.47;;;;;;;;;;5015911;28;20338;-78
2023/07/24 07:51:05;;;;;;;5.88;2.70;;;;;;;;;;5016383;28;20329;-77
2023/07/24 07:53:31;;;;;;;3.17;2.53;;;;;;;;;;5014847;28;20116;-77
2023/07/24 07:55:58;;;;;;;3.55;2.50;;;;;;;;;;5015759;28;20037;-77
2023/07/24 07:58:23;;;;;;;7.32;2.92;;;;;;;;;;5013412;28;20028;-77
2023/07/24 08:00:49;;;;;;;4.07;2.60;;;;;;;;;;5014812;28;20117;-78
2023/07/24 08:03:14;;;;;;;3.70;2.40;;;;;;;;;;5015433;28;20064;-77
2023/07/24 08:05:39;;;;;;;4.70;2.97;;;;;;;;;;5015029;28;20068;-77
2023/07/24 08:08:05;;;;;;;4.70;2.80;;;;;;;;;;5015954;28;20255;-77
2023/07/24 08:10:30;;;;;;;6.67;2.57;;;;;;;;;;5015897;28;20267;-78
2023/07/24 08:12:55;;;;;;;4.40;2.90;;;;;;;;;;5015867;28;20722;-77
2023/07/24 08:15:20;;;;;;;9.67;2.93;;;;;;;;;;5015562;28;20314;-77
2023/07/24 08:17:45;;;;;;;3.43;2.43;;;;;;;;;;5015701;28;20275;-80
2023/07/24 08:20:11;;;;;;;8.53;2.90;;;;;;;;;;5016142;28;20341;-77
2023/07/24 08:22:36;;;;;;;4.20;2.35;;;;;;;;;;5015836;28;20278;-77
2023/07/24 08:25:02;;;;;;;4.72;2.60;;;;;;;;;;5017110;28;20068;-77
2023/07/24 08:27:27;;;;;;;3.85;2.60;;;;;;;;;;5015435;28;20021;-77
2023/07/24 08:29:53;;;;;;;5.05;2.80;;;;;;;;;;5015247;28;20026;-77
2023/07/24 08:32:19;;;;;;;5.32;2.83;;;;;;;;;;5015043;28;20109;-77
2023/07/24 08:34:44;;;;;;;3.83;2.58;;;;;;;;;;5015131;28;20109;-76
2023/07/24 08:37:11;;;;;;;4.80;3.05;;;;;;;;;;5014951;28;20030;-77
2023/07/24 08:39:36;;;;;;;3.72;2.72;;;;;;;;;;5015285;28;20025;-77
2023/07/24 08:42:08;;;;;;;3.87;2.70;;;;;;;;;;5013940;28;20037;-77
2023/07/24 08:44:34;;;;;;;3.75;2.83;;;;;;;;;;5015512;28;20342;-77
2023/07/24 08:47:00;;;;;;;4.65;2.70;;;;;;;;;;5015295;28;20077;-76
2023/07/24 08:49:26;;;;;;;4.32;2.67;;;;;;;;;;5014770;28;20091;-77
2023/07/24 08:51:52;;;;;;;5.38;2.85;;;;;;;;;;5013595;28;20058;-77
2023/07/24 08:54:19;;;;;;;5.13;2.72;;;;;;;;;;5015082;28;20120;-77
2023/07/24 08:56:48;;;;;;;4.60;3.08;;;;;;;;;;5014818;28;20030;-77
2023/07/24 08:59:14;;;;;;;4.32;2.60;;;;;;;;;;5013474;28;20033;-77
2023/07/24 09:01:39;;;;;;;5.05;3.10;;;;;;;;;;5013448;28;20030;-77
2023/07/24 09:04:04;;;;;;;4.72;2.78;;;;;;;;;;5015037;28;20409;-76
2023/07/24 09:06:30;;;;;;;4.18;2.53;;;;;;;;;;5013425;28;20084;-76
2023/07/24 09:08:55;;;;;;;4.70;2.90;;;;;;;;;;5014916;28;20109;-76
2023/07/24 09:11:20;;;;;;;4.22;2.60;;;;;;;;;;5014628;28;20458;-76
2023/07/24 09:13:46;;;;;;;4.43;2.80;;;;;;;;;;5014592;28;20030;-76
2023/07/24 09:16:25;;;;;;;4.68;2.72;;;;;;;;;;5014503;28;20283;-76
2023/07/24 09:18:52;;;;;;;4.00;3.00;;;;;;;;;;5014386;28;20024;-76
2023/07/24 09:21:28;;;;;;;5.00;2.80;;;;;;;;;;5014681;28;20064;-80
2023/07/24 09:23:54;;;;;;;3.88;2.67;;;;;;;;;;5014476;28;20109;-76
2023/07/24 09:26:19;;;;;;;5.65;2.75;;;;;;;;;;5014346;28;20057;-76
2023/07/24 09:28:51;;;;;;;7.17;3.10;;;;;;;;;;5015666;28;20061;-80
2023/07/24 09:31:17;;;;;;;4.38;3.00;;;;;;;;;;5014163;28;20263;-81
2023/07/24 09:33:46;;;;;;;4.40;2.75;;;;;;;;;;5014067;28;20120;-78
2023/07/24 09:36:12;;;;;;;5.88;3.00;;;;;;;;;;5014330;28;20109;-78
2023/07/24 09:38:39;;;;;;;5.57;3.40;;;;;;;;;;5014362;28;20481;-76
2023/07/24 09:41:05;;;;;;;6.60;3.33;;;;;;;;;;5016783;28;20029;-80
2023/07/24 09:43:31;;;;;;;6.50;3.17;;;;;;;;;;5015446;28;20026;-76
2023/07/24 09:45:57;;;;;;;5.85;3.30;;;;;;;;;;5013784;28;20065;-76
2023/07/24 09:48:24;;;;;;;4.38;3.53;;;;;;;;;;5013744;28;20389;-76
2023/07/24 09:50:53;;;;;;;4.63;3.10;;;;;;;;;;5013602;28;20045;-76
2023/07/24 09:53:48;;;;;;;5.10;3.35;;;;;;;;;;5013281;28;20030;-75
2023/07/24 09:56:14;;;;;;;4.88;3.20;;;;;;;;;;5012148;28;20026;-75
2023/07/24 09:58:42;;;;;;;5.35;3.03;;;;;;;;;;5014006;28;20057;-75
2023/07/24 10:01:09;;;;;;;5.28;3.20;;;;;;;;;;5013114;28;20026;-75
2023/07/24 10:03:38;;;;;;;5.70;3.03;;;;;;;;;;5013103;28;20087;-74
2023/07/24 10:06:04;;;;;;;6.25;3.47;;;;;;;;;;5013595;28;20029;-77
2023/07/24 10:08:30;;;;;;;7.63;3.35;;;;;;;;;;5013937;28;20032;-76
2023/07/24 10:10:58;;;;;;;5.93;3.58;;;;;;;;;;5012199;28;20036;-76
2023/07/24 10:13:26;;;;;;;5.60;3.33;;;;;;;;;;5013421;28;20024;-76
2023/07/24 10:15:52;;;;;;;10.80;3.75;;;;;;;;;;5013179;28;20092;-76
2023/07/24 10:18:25;;;;;;;8.30;3.58;;;;;;;;;;5013771;28;20444;-76
2023/07/24 10:21:01;;;;;;;6.00;3.50;;;;;;;;;;5012566;28;20492;-76
2023/07/24 10:23:26;;;;;;;6.85;3.60;;;;;;;;;;5012765;28;20072;-75
2023/07/24 10:25:52;;;;;;;5.80;3.50;;;;;;;;;;5013063;28;20049;-76
2023/07/24 10:28:18;;;;;;;6.57;3.75;;;;;;;;;;5013295;28;20464;-76
2023/07/24 10:30:44;;;;;;;6.55;3.65;;;;;;;;;;5014288;28;20053;-78
2023/07/24 10:33:17;;;;;;;5.00;3.25;;;;;;;;;;5013939;28;20037;-81
2023/07/24 10:35:47;;;;;;;;;;;;;;;;;;5016157;28;20374;-78
2023/07/24 10:38:15;;;;;;;5.70;3.30;;;;;;;;;;5016103;28;19910;-77
2023/07/24 10:40:41;;;;;;;4.95;3.42;;;;;;;;;;5012573;28;20036;-77
2023/07/24 10:43:09;;;;;;;6.50;3.78;;;;;;;;;;5012793;28;20443;-78
2023/07/24 10:45:49;;;;;;;6.57;3.65;;;;;;;;;;5011398;28;20508;-77
2023/07/24 10:48:19;;;;;;;6.32;3.70;;;;;;;;;;5013312;28;20116;-77
2023/07/24 10:50:49;;;;;;;10.48;3.47;;;;;;;;;;5012881;28;20429;-77
2023/07/24 10:53:17;;;;;;;8.05;4.20;;;;;;;;;;5011642;28;20026;-77
2023/07/24 10:55:43;;;;;;;9.90;4.18;;;;;;;;;;5015159;28;20056;-78
2023/07/24 10:58:09;;;;;;;10.45;3.92;;;;;;;;;;5017159;28;20156;-77
2023/07/24 11:00:35;;;;;;;6.07;3.90;;;;;;;;;;5015782;28;20116;-77
2023/07/24 11:03:01;;;;;;;7.07;4.20;;;;;;;;;;5016744;28;20493;-77
2023/07/24 11:05:27;;;;;;;7.20;4.35;;;;;;;;;;5016768;28;20112;-77
2023/07/24 11:07:52;;;;;;;7.82;4.30;;;;;;;;;;5017453;28;20060;-77
2023/07/24 11:10:22;;;;;;;7.38;4.25;;;;;;;;;;5016887;28;20108;-77
2023/07/24 11:12:47;;;;;;;7.72;4.32;;;;;;;;;;5016809;28;20025;-77
2023/07/24 11:15:14;;;;;;;8.23;4.22;;;;;;;;;;5017153;28;20072;-77
2023/07/24 11:17:40;;;;;;;6.28;3.80;;;;;;;;;;5016648;28;20057;-77
2023/07/24 11:20:14;;;;;;;7.15;4.78;;;;;;;;;;5015971;28;20030;-77
2023/07/24 11:22:40;;;;;;;;;;;;;;;;;;5017085;28;20040;-77
2023/07/24 11:25:06;;;;;;;9.27;4.20;;;;;;;;;;5016237;28;19909;-77
2023/07/24 11:27:32;;;;;;;6.63;4.05;;;;;;;;;;5015134;28;20029;-77
2023/07/24 11:29:58;;;;;;;7.45;4.43;;;;;;;;;;5016474;28;20481;-77
2023/07/24 11:32:23;;;;;;;9.88;4.60;;;;;;;;;;5016322;28;20026;-77
2023/07/24 11:34:50;;;;;;;8.82;4.45;;;;;;;;;;5016527;28;20029;-77
2023/07/24 11:37:16;;;;;;;7.15;4.30;;;;;;;;;;5016365;28;20397;-77
2023/07/24 11:39:42;;;;;;;7.20;4.20;;;;;;;;;;5016354;28;20512;-77
2023/07/24 11:42:07;;;;;;;7.25;4.10;;;;;;;;;;5016352;28;20034;-77
2023/07/24 11:44:32;;;;;;;9.52;4.18;;;;;;;;;;5016584;28;20029;-77
2023/07/24 11:47:05;;;;;;;6.40;4.40;;;;;;;;;;5014954;28;20024;-77
2023/07/24 11:49:32;;;;;;;6.88;4.10;;;;;;;;;;5015021;28;20045;-77
2023/07/24 11:52:05;;;;;;;7.43;4.20;;;;;;;;;;5016175;28;20037;-77
2023/07/24 11:54:30;;;;;;;7.25;4.03;;;;;;;;;;5016083;28;20029;-76
2023/07/24 11:56:56;;;;;;;7.40;4.03;;;;;;;;;;5016053;28;20125;-77
2023/07/24 11:59:21;;;;;;;8.88;4.13;;;;;;;;;;5016170;28;20110;-76
2023/07/24 12:01:48;;;;;;;7.97;4.15;;;;;;;;;;5016004;28;20109;-77
2023/07/24 12:04:13;;;;;;;6.72;4.43;;;;;;;;;;5015925;28;20501;-77
2023/07/24 12:06:38;;;;;;;8.85;4.45;;;;;;;;;;5015533;28;20028;-77
2023/07/24 12:09:05;;;;;;;7.45;4.15;;;;;;;;;;5015772;28;20439;-77
2023/07/24 12:11:31;;;;;;;8.38;4.78;;;;;;;;;;5015796;28;20037;-77
2023/07/24 12:13:56;;;;;;;6.35;4.57;;;;;;;;;;5015763;28;20396;-77
2023/07/24 12:16:22;;;;;;;7.20;4.50;;;;;;;;;;5015444;28;20109;-77
2023/07/24 12:18:47;;;;;;;10.65;4.65;;;;;;;;;;5016049;28;20481;-77
2023/07/24 12:21:12;;;;;;;10.30;4.30;;;;;;;;;;5015872;28;20029;-77
2023/07/24 12:23:37;;;;;;;8.85;4.50;;;;;;;;;;5015519;28;20401;-77
2023/07/24 12:26:03;;;;;;;17.00;4.53;;;;;;;;;;5014224;28;20136;-77
2023/07/24 12:28:28;;;;;;;9.63;4.77;;;;;;;;;;5015318;28;20274;-77
2023/07/24 12:30:53;;;;;;;10.18;4.57;;;;;;;;;;5014091;28;20619;-77
2023/07/24 12:33:23;;;;;;;7.57;4.80;;;;;;;;;;5015503;28;20029;-77
2023/07/24 12:35:48;;;;;;;7.63;4.78;;;;;;;;;;5015494;28;20022;-77
2023/07/24 12:38:13;;;;;;;8.07;4.90;;;;;;;;;;5015161;28;20040;-77
2023/07/24 12:40:38;;;;;;;8.33;4.50;;;;;;;;;;5015240;28;20677;-77
2023/07/24 12:43:04;;;;;;;8.50;4.97;;;;;;;;;;5013864;28;20267;-77
2023/07/24 12:45:29;;;;;;;8.57;4.33;;;;;;;;;;5013888;28;20274;-77
2023/07/24 12:47:55;;;;;;;8.10;5.03;;;;;;;;;;5014991;28;20831;-77
2023/07/24 12:50:21;;;;;;;9.65;4.82;;;;;;;;;;5014889;28;20263;-77
2023/07/24 12:52:46;;;;;;;9.07;4.68;;;;;;;;;;5015007;28;20021;-77
2023/07/24 12:55:11;;;;;;;10.57;5.20;;;;;;;;;;5013726;28;20071;-77
2023/07/24 12:57:37;;;;;;;9.53;5.00;;;;;;;;;;5014817;28;20053;-77
2023/07/24 13:00:02;;;;;;;11.00;5.53;;;;;;;;;;5014683;28;20302;-77
2023/07/24 13:02:28;;;;;;;10.32;4.75;;;;;;;;;;5013597;28;20260;-77
2023/07/24 13:04:53;;;;;;;8.40;4.72;;;;;;;;;;5014728;28;20026;-77
2023/07/24 13:07:18;;;;;;;7.07;4.20;;;;;;;;;;5014713;28;20481;-77
2023/07/24 13:09:44;;;;;;;7.67;4.87;;;;;;;;;;5013569;28;20675;-77
2023/07/24 13:12:09;;;;;;;8.02;4.45;;;;;;;;;;5014034;28;20271;-77
2023/07/24 13:14:34;;;;;;;10.30;4.47;;;;;;;;;;5013366;28;20467;-77
2023/07/24 13:17:00;;;;;;;7.90;4.57;;;;;;;;;;5014451;28;20477;-77
2023/07/24 13:19:25;;;;;;;7.45;4.45;;;;;;;;;;5013790;28;20543;-77
2023/07/24 13:21:50;;;;;;;12.77;5.10;;;;;;;;;;5014677;28;20079;-77
2023/07/24 13:24:15;;;;;;;9.13;5.15;;;;;;;;;;5014340;28;20792;-77
2023/07/24 13:26:41;;;;;;;13.47;5.13;;;;;;;;;;5014288;28;20030;-77
2023/07/24 13:29:06;;;;;;;8.10;4.45;;;;;;;;;;5014133;28;20084;-77
2023/07/24 13:31:31;;;;;;;8.30;4.63;;;;;;;;;;5014146;28;20024;-77
2023/07/24 13:33:57;;;;;;;7.55;4.78;;;;;;;;;;5014173;28;20255;-77
2023/07/24 13:36:22;;;;;;;7.90;4.63;;;;;;;;;;5014136;28;20034;-77
2023/07/24 13:38:47;;;;;;;7.50;4.43;;;;;;;;;;5012925;28;20049;-77
2023/07/24 13:41:13;;;;;;;8.98;4.55;;;;;;;;;;5012757;28;20109;-77
2023/07/24 13:43:38;;;;;;;8.17;4.43;;;;;;;;;;5014336;28;20018;-77
2023/07/24 13:46:03;;;;;;;9.57;4.43;;;;;;;;;;5013027;28;20349;-77
2023/07/24 13:48:29;;;;;;;8.35;4.43;;;;;;;;;;5012670;28;20271;-77
2023/07/24 13:50:55;;;;;;;11.88;4.57;;;;;;;;;;5014364;28;20026;-77
2023/07/24 13:53:21;;;;;;;8.90;3.97;;;;;;;;;;5014038;28;20040;-78
2023/07/24 13:55:46;;;;;;;7.72;4.00;;;;;;;;;;5014204;28;20758;-77
2023/07/24 13:58:11;;;;;;;5.97;4.10;;;;;;;;;;5017854;28;20030;-76
2023/07/24 14:00:37;;;;;;;6.85;4.10;;;;;;;;;;5013042;28;20050;-77
2023/07/24 14:03:02;;;;;;;8.20;4.05;;;;;;;;;;5014645;28;20564;-77
2023/07/24 14:05:28;;;;;;;6.38;3.92;;;;;;;;;;5014140;28;20030;-77
2023/07/24 14:07:53;;;;;;;5.47;3.45;;;;;;;;;;5012515;28;20049;-77
2023/07/24 14:10:19;;;;;;;4.40;3.23;;;;;;;;;;5014031;28;20040;-76
2023/07/24 14:12:44;;;;;;;6.40;3.08;;;;;;;;;;5013516;28;20271;-76
2023/07/24 14:15:09;;;;;;;4.45;3.00;;;;;;;;;;5013646;28;20041;-75
2023/07/24 14:17:35;;;;;;;3.58;2.40;;;;;;;;;;5013450;28;20122;-77
2023/07/24 14:20:01;;;;;;;5.68;2.72;;;;;;;;;;5013724;28;20034;-75
2023/07/24 14:22:27;;;;;;;4.30;2.97;;;;;;;;;;5013453;28;20026;-76
2023/07/24 14:24:52;;;;;;;3.70;2.55;;;;;;;;;;5012206;28;20071;-75
2023/07/24 14:27:17;;;;;;;3.53;2.37;;;;;;;;;;5013637;28;20014;-75
2023/07/24 14:29:42;;;;;;;4.57;2.53;;;;;;;;;;5013174;28;20259;-75
2023/07/24 14:32:08;;;;;;;6.55;3.63;;;;;;;;;;5013244;28;20274;-75
2023/07/24 14:34:33;;;;;;;5.68;3.50;;;;;;;;;;5013173;28;20072;-75
2023/07/24 14:36:58;;;;;;;5.57;3.40;;;;;;;;;;5011938;28;20038;-75